sensor_id;sensor_type;location;lat;lon;timestamp;P1;durP1;ratioP1;P2;durP2;ratioP2
13067;SDS011;6600;51.362;6.686;2023-08-08T00:00:00;0.73;;;0.70;;
13067;SDS011;6600;51.362;6.686;2023-08-08T00:02:26;0.80;;;0.80;;
13067;SDS011;6600;51.362;6.686;2023-08-08T00:04:52;1.37;;;0.80;;
13067;SDS011;6600;51.362;6.686;2023-08-08T00:07:18;1.07;;;0.80;;
13067;SDS011;6600;51.362;6.686;2023-08-08T00:09:43;2.93;;;1.00;;
13067;SDS011;6600;51.362;6.686;2023-08-08T00:12:08;0.87;;;0.80;;
13067;SDS011;6600;51.362;6.686;2023-08-08T00:14:34;0.97;;;0.97;;
13067;SDS011;6600;51.362;6.686;2023-08-08T00:16:59;1.00;;;0.90;;
13067;SDS011;6600;51.362;6.686;2023-08-08T00:19:24;3.00;;;1.00;;
13067;SDS011;6600;51.362;6.686;2023-08-08T00:21:50;1.47;;;1.37;;
13067;SDS011;6600;51.362;6.686;2023-08-08T00:24:15;2.23;;;1.00;;
13067;SDS011;6600;51.362;6.686;2023-08-08T00:26:40;1.10;;;1.00;;
13067;SDS011;6600;51.362;6.686;2023-08-08T00:29:06;1.43;;;1.10;;
13067;SDS011;6600;51.362;6.686;2023-08-08T00:31:31;1.07;;;0.97;;
13067;SDS011;6600;51.362;6.686;2023-08-08T00:33:57;0.70;;;0.70;;
13067;SDS011;6600;51.362;6.686;2023-08-08T00:36:22;1.40;;;1.00;;
13067;SDS011;6600;51.362;6.686;2023-08-08T00:38:47;0.90;;;0.90;;
13067;SDS011;6600;51.362;6.686;2023-08-08T00:41:14;0.70;;;0.70;;
13067;SDS011;6600;51.362;6.686;2023-08-08T00:43:39;1.63;;;0.90;;
13067;SDS011;6600;51.362;6.686;2023-08-08T00:46:04;0.60;;;0.60;;
13067;SDS011;6600;51.362;6.686;2023-08-08T00:48:30;2.13;;;0.90;;
13067;SDS011;6600;51.362;6.686;2023-08-08T00:50:56;2.23;;;0.80;;
13067;SDS011;6600;51.362;6.686;2023-08-08T00:53:21;1.30;;;1.10;;
13067;SDS011;6600;51.362;6.686;2023-08-08T00:55:51;1.30;;;0.83;;
13067;SDS011;6600;51.362;6.686;2023-08-08T00:58:18;2.47;;;0.77;;
13067;SDS011;6600;51.362;6.686;2023-08-08T01:00:44;1.23;;;1.10;;
13067;SDS011;6600;51.362;6.686;2023-08-08T01:03:09;4.37;;;1.03;;
13067;SDS011;6600;51.362;6.686;2023-08-08T01:05:35;1.63;;;0.90;;
13067;SDS011;6600;51.362;6.686;2023-08-08T01:08:07;0.87;;;0.87;;
13067;SDS011;6600;51.362;6.686;2023-08-08T01:10:39;4.83;;;0.90;;
13067;SDS011;6600;51.362;6.686;2023-08-08T01:13:21;1.10;;;0.90;;
13067;SDS011;6600;51.362;6.686;2023-08-08T01:15:49;0.97;;;0.80;;
13067;SDS011;6600;51.362;6.686;2023-08-08T01:18:15;2.67;;;0.63;;
13067;SDS011;6600;51.362;6.686;2023-08-08T01:20:42;1.27;;;1.17;;
13067;SDS011;6600;51.362;6.686;2023-08-08T01:25:44;1.70;;;1.03;;
13067;SDS011;6600;51.362;6.686;2023-08-08T01:28:11;0.63;;;0.60;;
13067;SDS011;6600;51.362;6.686;2023-08-08T01:30:37;0.90;;;0.90;;
13067;SDS011;6600;51.362;6.686;2023-08-08T01:33:04;1.17;;;1.00;;
13067;SDS011;6600;51.362;6.686;2023-08-08T01:35:30;2.10;;;0.97;;
13067;SDS011;6600;51.362;6.686;2023-08-08T01:38:16;1.37;;;1.00;;
13067;SDS011;6600;51.362;6.686;2023-08-08T01:40:45;0.87;;;0.80;;
13067;SDS011;6600;51.362;6.686;2023-08-08T01:43:12;0.73;;;0.73;;
13067;SDS011;6600;51.362;6.686;2023-08-08T01:45:39;1.73;;;1.63;;
13067;SDS011;6600;51.362;6.686;2023-08-08T01:48:08;1.33;;;0.87;;
13067;SDS011;6600;51.362;6.686;2023-08-08T01:50:34;1.97;;;0.80;;
13067;SDS011;6600;51.362;6.686;2023-08-08T01:53:00;0.63;;;0.63;;
13067;SDS011;6600;51.362;6.686;2023-08-08T01:55:25;1.60;;;1.03;;
13067;SDS011;6600;51.362;6.686;2023-08-08T01:57:51;0.90;;;0.90;;
13067;SDS011;6600;51.362;6.686;2023-08-08T02:00:17;0.77;;;0.77;;
13067;SDS011;6600;51.362;6.686;2023-08-08T02:02:42;2.20;;;1.00;;
13067;SDS011;6600;51.362;6.686;2023-08-08T02:05:08;2.13;;;1.20;;
13067;SDS011;6600;51.362;6.686;2023-08-08T02:07:33;1.47;;;0.80;;
13067;SDS011;6600;51.362;6.686;2023-08-08T02:09:58;0.80;;;0.80;;
13067;SDS011;6600;51.362;6.686;2023-08-08T02:12:24;0.80;;;0.80;;
13067;SDS011;6600;51.362;6.686;2023-08-08T02:14:49;0.60;;;0.60;;
13067;SDS011;6600;51.362;6.686;2023-08-08T02:17:14;3.07;;;1.40;;
13067;SDS011;6600;51.362;6.686;2023-08-08T02:19:40;1.10;;;1.10;;
13067;SDS011;6600;51.362;6.686;2023-08-08T02:22:05;0.77;;;0.70;;
13067;SDS011;6600;51.362;6.686;2023-08-08T02:24:30;2.10;;;1.27;;
13067;SDS011;6600;51.362;6.686;2023-08-08T02:26:55;1.63;;;1.47;;
13067;SDS011;6600;51.362;6.686;2023-08-08T02:29:21;1.53;;;1.17;;
13067;SDS011;6600;51.362;6.686;2023-08-08T02:31:46;1.40;;;1.00;;
13067;SDS011;6600;51.362;6.686;2023-08-08T02:34:11;1.00;;;1.00;;
13067;SDS011;6600;51.362;6.686;2023-08-08T02:36:37;1.30;;;0.90;;
13067;SDS011;6600;51.362;6.686;2023-08-08T02:39:02;2.40;;;1.20;;
13067;SDS011;6600;51.362;6.686;2023-08-08T02:41:28;0.70;;;0.63;;
13067;SDS011;6600;51.362;6.686;2023-08-08T02:43:53;3.60;;;0.93;;
13067;SDS011;6600;51.362;6.686;2023-08-08T02:46:19;1.50;;;1.03;;
13067;SDS011;6600;51.362;6.686;2023-08-08T02:48:44;2.10;;;1.30;;
13067;SDS011;6600;51.362;6.686;2023-08-08T02:51:09;1.77;;;0.90;;
13067;SDS011;6600;51.362;6.686;2023-08-08T02:53:34;2.37;;;0.93;;
13067;SDS011;6600;51.362;6.686;2023-08-08T02:56:00;1.97;;;1.17;;
13067;SDS011;6600;51.362;6.686;2023-08-08T02:58:25;2.53;;;1.40;;
13067;SDS011;6600;51.362;6.686;2023-08-08T03:00:50;1.27;;;1.17;;
13067;SDS011;6600;51.362;6.686;2023-08-08T03:03:17;1.13;;;0.90;;
13067;SDS011;6600;51.362;6.686;2023-08-08T03:05:43;1.83;;;1.37;;
13067;SDS011;6600;51.362;6.686;2023-08-08T03:08:09;1.90;;;1.20;;
13067;SDS011;6600;51.362;6.686;2023-08-08T03:10:35;1.13;;;0.90;;
13067;SDS011;6600;51.362;6.686;2023-08-08T03:13:00;1.40;;;0.97;;
13067;SDS011;6600;51.362;6.686;2023-08-08T03:15:25;1.80;;;1.30;;
13067;SDS011;6600;51.362;6.686;2023-08-08T03:17:51;1.10;;;1.00;;
13067;SDS011;6600;51.362;6.686;2023-08-08T03:20:16;2.20;;;1.50;;
13067;SDS011;6600;51.362;6.686;2023-08-08T03:22:41;2.47;;;1.17;;
13067;SDS011;6600;51.362;6.686;2023-08-08T03:25:07;2.63;;;0.90;;
13067;SDS011;6600;51.362;6.686;2023-08-08T03:27:32;1.97;;;1.60;;
13067;SDS011;6600;51.362;6.686;2023-08-08T03:29:58;1.37;;;1.27;;
13067;SDS011;6600;51.362;6.686;2023-08-08T03:32:23;1.30;;;1.10;;
13067;SDS011;6600;51.362;6.686;2023-08-08T03:34:48;1.63;;;1.30;;
13067;SDS011;6600;51.362;6.686;2023-08-08T03:37:14;3.47;;;1.07;;
13067;SDS011;6600;51.362;6.686;2023-08-08T03:39:39;1.70;;;0.93;;
13067;SDS011;6600;51.362;6.686;2023-08-08T03:42:05;1.37;;;1.00;;
13067;SDS011;6600;51.362;6.686;2023-08-08T03:44:30;1.60;;;1.00;;
13067;SDS011;6600;51.362;6.686;2023-08-08T03:46:55;3.13;;;1.47;;
13067;SDS011;6600;51.362;6.686;2023-08-08T03:49:21;0.83;;;0.83;;
13067;SDS011;6600;51.362;6.686;2023-08-08T03:51:46;1.03;;;0.80;;
13067;SDS011;6600;51.362;6.686;2023-08-08T03:54:13;1.43;;;1.07;;
13067;SDS011;6600;51.362;6.686;2023-08-08T03:56:39;4.37;;;1.37;;
13067;SDS011;6600;51.362;6.686;2023-08-08T03:59:04;0.90;;;0.67;;
13067;SDS011;6600;51.362;6.686;2023-08-08T04:01:29;1.57;;;1.10;;
13067;SDS011;6600;51.362;6.686;2023-08-08T04:03:55;1.20;;;0.93;;
13067;SDS011;6600;51.362;6.686;2023-08-08T04:06:20;1.17;;;1.07;;
13067;SDS011;6600;51.362;6.686;2023-08-08T04:08:45;2.50;;;0.90;;
13067;SDS011;6600;51.362;6.686;2023-08-08T04:11:11;1.87;;;0.90;;
13067;SDS011;6600;51.362;6.686;2023-08-08T04:13:36;2.20;;;1.10;;
13067;SDS011;6600;51.362;6.686;2023-08-08T04:16:02;3.30;;;1.23;;
13067;SDS011;6600;51.362;6.686;2023-08-08T04:18:27;1.37;;;1.23;;
13067;SDS011;6600;51.362;6.686;2023-08-08T04:20:52;1.47;;;1.27;;
13067;SDS011;6600;51.362;6.686;2023-08-08T04:23:18;2.43;;;1.00;;
13067;SDS011;6600;51.362;6.686;2023-08-08T04:25:44;1.67;;;1.10;;
13067;SDS011;6600;51.362;6.686;2023-08-08T04:28:09;1.40;;;1.30;;
13067;SDS011;6600;51.362;6.686;2023-08-08T04:30:34;1.10;;;1.00;;
13067;SDS011;6600;51.362;6.686;2023-08-08T04:33:00;2.97;;;1.30;;
13067;SDS011;6600;51.362;6.686;2023-08-08T04:35:25;1.07;;;0.80;;
13067;SDS011;6600;51.362;6.686;2023-08-08T04:37:51;1.37;;;1.20;;
13067;SDS011;6600;51.362;6.686;2023-08-08T04:40:16;1.60;;;1.23;;
13067;SDS011;6600;51.362;6.686;2023-08-08T04:42:41;3.63;;;1.40;;
13067;SDS011;6600;51.362;6.686;2023-08-08T04:45:07;2.67;;;1.40;;
13067;SDS011;6600;51.362;6.686;2023-08-08T04:47:33;2.13;;;1.20;;
13067;SDS011;6600;51.362;6.686;2023-08-08T04:49:59;1.70;;;1.10;;
13067;SDS011;6600;51.362;6.686;2023-08-08T04:52:24;1.33;;;1.23;;
13067;SDS011;6600;51.362;6.686;2023-08-08T04:54:49;2.17;;;1.50;;
13067;SDS011;6600;51.362;6.686;2023-08-08T04:57:15;7.17;;;1.23;;
13067;SDS011;6600;51.362;6.686;2023-08-08T04:59:40;2.60;;;1.40;;
13067;SDS011;6600;51.362;6.686;2023-08-08T05:02:05;1.80;;;1.50;;
13067;SDS011;6600;51.362;6.686;2023-08-08T05:04:31;2.53;;;1.50;;
13067;SDS011;6600;51.362;6.686;2023-08-08T05:06:56;1.30;;;1.20;;
13067;SDS011;6600;51.362;6.686;2023-08-08T05:09:22;5.83;;;1.63;;
13067;SDS011;6600;51.362;6.686;2023-08-08T05:11:51;2.40;;;1.43;;
13067;SDS011;6600;51.362;6.686;2023-08-08T05:14:19;1.30;;;1.20;;
13067;SDS011;6600;51.362;6.686;2023-08-08T05:16:45;1.80;;;1.30;;
13067;SDS011;6600;51.362;6.686;2023-08-08T05:19:11;2.07;;;1.13;;
13067;SDS011;6600;51.362;6.686;2023-08-08T05:21:36;3.43;;;1.50;;
13067;SDS011;6600;51.362;6.686;2023-08-08T05:24:02;2.60;;;1.43;;
13067;SDS011;6600;51.362;6.686;2023-08-08T05:26:28;1.90;;;1.70;;
13067;SDS011;6600;51.362;6.686;2023-08-08T05:28:53;2.37;;;1.83;;
13067;SDS011;6600;51.362;6.686;2023-08-08T05:31:18;2.77;;;1.40;;
13067;SDS011;6600;51.362;6.686;2023-08-08T05:33:44;2.07;;;1.77;;
13067;SDS011;6600;51.362;6.686;2023-08-08T05:36:09;2.90;;;1.57;;
13067;SDS011;6600;51.362;6.686;2023-08-08T05:38:36;2.23;;;1.67;;
13067;SDS011;6600;51.362;6.686;2023-08-08T05:41:01;1.73;;;1.40;;
13067;SDS011;6600;51.362;6.686;2023-08-08T05:43:27;4.13;;;1.90;;
13067;SDS011;6600;51.362;6.686;2023-08-08T05:45:53;6.47;;;2.20;;
13067;SDS011;6600;51.362;6.686;2023-08-08T05:48:18;2.97;;;1.90;;
13067;SDS011;6600;51.362;6.686;2023-08-08T05:50:44;3.83;;;1.67;;
13067;SDS011;6600;51.362;6.686;2023-08-08T05:53:09;2.13;;;1.50;;
13067;SDS011;6600;51.362;6.686;2023-08-08T05:55:34;4.83;;;2.23;;
13067;SDS011;6600;51.362;6.686;2023-08-08T05:58:00;2.33;;;1.93;;
13067;SDS011;6600;51.362;6.686;2023-08-08T06:00:25;6.83;;;2.13;;
13067;SDS011;6600;51.362;6.686;2023-08-08T06:02:50;5.27;;;2.10;;
13067;SDS011;6600;51.362;6.686;2023-08-08T06:05:16;3.47;;;2.27;;
13067;SDS011;6600;51.362;6.686;2023-08-08T06:07:42;2.37;;;2.07;;
13067;SDS011;6600;51.362;6.686;2023-08-08T06:10:08;3.53;;;2.50;;
13067;SDS011;6600;51.362;6.686;2023-08-08T06:12:34;2.90;;;2.43;;
13067;SDS011;6600;51.362;6.686;2023-08-08T06:15:00;5.53;;;2.73;;
13067;SDS011;6600;51.362;6.686;2023-08-08T06:17:25;5.23;;;2.70;;
13067;SDS011;6600;51.362;6.686;2023-08-08T06:19:50;6.00;;;2.63;;
13067;SDS011;6600;51.362;6.686;2023-08-08T06:22:16;4.90;;;2.60;;
13067;SDS011;6600;51.362;6.686;2023-08-08T06:24:41;2.93;;;2.57;;
13067;SDS011;6600;51.362;6.686;2023-08-08T06:27:07;3.97;;;2.40;;
13067;SDS011;6600;51.362;6.686;2023-08-08T06:29:32;4.10;;;2.30;;
13067;SDS011;6600;51.362;6.686;2023-08-08T06:31:57;3.33;;;2.50;;
13067;SDS011;6600;51.362;6.686;2023-08-08T06:34:23;4.10;;;3.00;;
13067;SDS011;6600;51.362;6.686;2023-08-08T06:36:48;2.97;;;2.50;;
13067;SDS011;6600;51.362;6.686;2023-08-08T06:39:13;4.23;;;2.30;;
13067;SDS011;6600;51.362;6.686;2023-08-08T06:41:40;3.80;;;2.40;;
13067;SDS011;6600;51.362;6.686;2023-08-08T06:44:06;4.37;;;2.57;;
13067;SDS011;6600;51.362;6.686;2023-08-08T06:46:32;2.27;;;2.07;;
13067;SDS011;6600;51.362;6.686;2023-08-08T06:48:58;2.93;;;2.13;;
13067;SDS011;6600;51.362;6.686;2023-08-08T06:51:24;4.23;;;2.20;;
13067;SDS011;6600;51.362;6.686;2023-08-08T06:53:50;2.43;;;1.90;;
13067;SDS011;6600;51.362;6.686;2023-08-08T06:56:16;4.10;;;1.67;;
13067;SDS011;6600;51.362;6.686;2023-08-08T06:58:41;4.37;;;2.50;;
13067;SDS011;6600;51.362;6.686;2023-08-08T07:01:08;4.33;;;2.00;;
13067;SDS011;6600;51.362;6.686;2023-08-08T07:03:34;2.63;;;2.00;;
13067;SDS011;6600;51.362;6.686;2023-08-08T07:06:00;2.90;;;1.63;;
13067;SDS011;6600;51.362;6.686;2023-08-08T07:08:25;5.57;;;2.33;;
13067;SDS011;6600;51.362;6.686;2023-08-08T07:10:51;1.97;;;1.77;;
13067;SDS011;6600;51.362;6.686;2023-08-08T07:13:16;3.53;;;1.87;;
13067;SDS011;6600;51.362;6.686;2023-08-08T07:15:41;3.17;;;2.13;;
13067;SDS011;6600;51.362;6.686;2023-08-08T07:18:07;1.67;;;1.57;;
13067;SDS011;6600;51.362;6.686;2023-08-08T07:20:32;2.60;;;2.10;;
13067;SDS011;6600;51.362;6.686;2023-08-08T07:22:58;2.17;;;1.70;;
13067;SDS011;6600;51.362;6.686;2023-08-08T07:25:25;1.97;;;1.77;;
13067;SDS011;6600;51.362;6.686;2023-08-08T07:27:50;3.00;;;1.60;;
13067;SDS011;6600;51.362;6.686;2023-08-08T07:30:16;2.00;;;1.70;;
13067;SDS011;6600;51.362;6.686;2023-08-08T07:32:41;1.83;;;1.37;;
13067;SDS011;6600;51.362;6.686;2023-08-08T07:35:06;2.77;;;2.00;;
13067;SDS011;6600;51.362;6.686;2023-08-08T07:37:33;2.23;;;1.77;;
13067;SDS011;6600;51.362;6.686;2023-08-08T07:39:59;2.03;;;1.87;;
13067;SDS011;6600;51.362;6.686;2023-08-08T07:42:25;1.30;;;1.20;;
13067;SDS011;6600;51.362;6.686;2023-08-08T07:44:50;1.73;;;1.57;;
13067;SDS011;6600;51.362;6.686;2023-08-08T07:47:16;1.50;;;1.40;;
13067;SDS011;6600;51.362;6.686;2023-08-08T07:49:41;3.30;;;1.50;;
13067;SDS011;6600;51.362;6.686;2023-08-08T07:52:06;2.63;;;1.33;;
13067;SDS011;6600;51.362;6.686;2023-08-08T07:54:32;2.80;;;1.33;;
13067;SDS011;6600;51.362;6.686;2023-08-08T07:56:58;1.37;;;1.23;;
13067;SDS011;6600;51.362;6.686;2023-08-08T07:59:23;2.97;;;1.20;;
13067;SDS011;6600;51.362;6.686;2023-08-08T08:01:49;1.83;;;1.50;;
13067;SDS011;6600;51.362;6.686;2023-08-08T08:04:14;3.43;;;1.50;;
13067;SDS011;6600;51.362;6.686;2023-08-08T08:06:39;2.30;;;1.47;;
13067;SDS011;6600;51.362;6.686;2023-08-08T08:09:05;3.27;;;1.50;;
13067;SDS011;6600;51.362;6.686;2023-08-08T08:11:30;1.93;;;1.07;;
13067;SDS011;6600;51.362;6.686;2023-08-08T08:13:55;2.30;;;1.20;;
13067;SDS011;6600;51.362;6.686;2023-08-08T08:16:21;2.63;;;1.20;;
13067;SDS011;6600;51.362;6.686;2023-08-08T08:18:46;2.37;;;1.07;;
13067;SDS011;6600;51.362;6.686;2023-08-08T08:21:13;2.27;;;1.13;;
13067;SDS011;6600;51.362;6.686;2023-08-08T08:23:39;2.30;;;1.20;;
13067;SDS011;6600;51.362;6.686;2023-08-08T08:26:04;1.33;;;1.23;;
13067;SDS011;6600;51.362;6.686;2023-08-08T08:28:30;2.90;;;1.43;;
13067;SDS011;6600;51.362;6.686;2023-08-08T08:30:55;1.70;;;1.60;;
13067;SDS011;6600;51.362;6.686;2023-08-08T08:33:21;1.20;;;1.10;;
13067;SDS011;6600;51.362;6.686;2023-08-08T08:35:46;1.60;;;1.07;;
13067;SDS011;6600;51.362;6.686;2023-08-08T08:38:11;2.37;;;1.40;;
13067;SDS011;6600;51.362;6.686;2023-08-08T08:40:37;1.07;;;1.07;;
13067;SDS011;6600;51.362;6.686;2023-08-08T08:43:05;1.57;;;1.17;;
13067;SDS011;6600;51.362;6.686;2023-08-08T08:45:32;2.40;;;1.00;;
13067;SDS011;6600;51.362;6.686;2023-08-08T08:48:02;1.70;;;1.00;;
13067;SDS011;6600;51.362;6.686;2023-08-08T08:50:28;1.30;;;1.20;;
13067;SDS011;6600;51.362;6.686;2023-08-08T08:52:57;3.90;;;1.17;;
13067;SDS011;6600;51.362;6.686;2023-08-08T08:55:24;2.13;;;1.30;;
13067;SDS011;6600;51.362;6.686;2023-08-08T08:57:50;1.83;;;1.10;;
13067;SDS011;6600;51.362;6.686;2023-08-08T09:00:16;2.03;;;1.23;;
13067;SDS011;6600;51.362;6.686;2023-08-08T09:02:41;1.00;;;1.00;;
13067;SDS011;6600;51.362;6.686;2023-08-08T09:05:07;1.63;;;1.10;;
13067;SDS011;6600;51.362;6.686;2023-08-08T09:07:34;0.87;;;0.87;;
13067;SDS011;6600;51.362;6.686;2023-08-08T09:10:01;2.40;;;1.10;;
13067;SDS011;6600;51.362;6.686;2023-08-08T09:12:27;2.80;;;1.43;;
13067;SDS011;6600;51.362;6.686;2023-08-08T09:14:55;1.50;;;1.20;;
13067;SDS011;6600;51.362;6.686;2023-08-08T09:17:21;1.67;;;1.53;;
13067;SDS011;6600;51.362;6.686;2023-08-08T09:19:49;3.03;;;1.23;;
13067;SDS011;6600;51.362;6.686;2023-08-08T09:22:15;3.70;;;1.90;;
13067;SDS011;6600;51.362;6.686;2023-08-08T09:24:40;2.90;;;1.10;;
13067;SDS011;6600;51.362;6.686;2023-08-08T09:27:09;1.40;;;1.30;;
13067;SDS011;6600;51.362;6.686;2023-08-08T09:29:35;1.20;;;0.97;;
13067;SDS011;6600;51.362;6.686;2023-08-08T09:32:04;1.07;;;1.03;;
13067;SDS011;6600;51.362;6.686;2023-08-08T09:34:30;1.83;;;1.07;;
13067;SDS011;6600;51.362;6.686;2023-08-08T09:36:56;1.63;;;1.03;;
13067;SDS011;6600;51.362;6.686;2023-08-08T09:39:22;3.07;;;1.10;;
13067;SDS011;6600;51.362;6.686;2023-08-08T09:41:47;1.07;;;1.00;;
13067;SDS011;6600;51.362;6.686;2023-08-08T09:44:12;5.43;;;1.23;;
13067;SDS011;6600;51.362;6.686;2023-08-08T09:46:38;2.10;;;1.10;;
13067;SDS011;6600;51.362;6.686;2023-08-08T09:49:05;1.63;;;0.87;;
13067;SDS011;6600;51.362;6.686;2023-08-08T09:51:31;2.70;;;0.80;;
13067;SDS011;6600;51.362;6.686;2023-08-08T09:53:58;0.90;;;0.90;;
13067;SDS011;6600;51.362;6.686;2023-08-08T09:56:24;1.17;;;1.00;;
13067;SDS011;6600;51.362;6.686;2023-08-08T09:58:50;1.03;;;0.93;;
13067;SDS011;6600;51.362;6.686;2023-08-08T10:01:16;2.60;;;1.23;;
13067;SDS011;6600;51.362;6.686;2023-08-08T10:03:43;1.30;;;1.07;;
13067;SDS011;6600;51.362;6.686;2023-08-08T10:06:10;1.00;;;0.90;;
13067;SDS011;6600;51.362;6.686;2023-08-08T10:08:35;1.03;;;0.87;;
13067;SDS011;6600;51.362;6.686;2023-08-08T10:11:01;1.63;;;1.03;;
13067;SDS011;6600;51.362;6.686;2023-08-08T10:13:27;2.70;;;1.00;;
13067;SDS011;6600;51.362;6.686;2023-08-08T10:15:53;3.17;;;1.40;;
13067;SDS011;6600;51.362;6.686;2023-08-08T10:18:22;1.40;;;1.03;;
13067;SDS011;6600;51.362;6.686;2023-08-08T10:20:49;1.20;;;1.10;;
13067;SDS011;6600;51.362;6.686;2023-08-08T10:23:16;2.30;;;1.00;;
13067;SDS011;6600;51.362;6.686;2023-08-08T10:25:45;1.63;;;0.70;;
13067;SDS011;6600;51.362;6.686;2023-08-08T10:28:13;2.30;;;1.10;;
13067;SDS011;6600;51.362;6.686;2023-08-08T10:33:28;4.90;;;1.20;;
13067;SDS011;6600;51.362;6.686;2023-08-08T10:36:04;0.73;;;0.73;;
13067;SDS011;6600;51.362;6.686;2023-08-08T10:41:17;1.10;;;1.00;;
13067;SDS011;6600;51.362;6.686;2023-08-08T10:49:11;0.87;;;0.60;;
13067;SDS011;6600;51.362;6.686;2023-08-08T10:51:38;2.10;;;1.07;;
13067;SDS011;6600;51.362;6.686;2023-08-08T10:54:08;0.70;;;0.70;;
13067;SDS011;6600;51.362;6.686;2023-08-08T10:56:38;1.60;;;0.73;;
13067;SDS011;6600;51.362;6.686;2023-08-08T10:59:12;1.83;;;0.90;;
13067;SDS011;6600;51.362;6.686;2023-08-08T11:01:40;2.60;;;0.93;;
13067;SDS011;6600;51.362;6.686;2023-08-08T11:04:05;1.80;;;0.90;;
13067;SDS011;6600;51.362;6.686;2023-08-08T11:06:32;2.23;;;1.00;;
13067;SDS011;6600;51.362;6.686;2023-08-08T11:08:58;2.60;;;1.40;;
13067;SDS011;6600;51.362;6.686;2023-08-08T11:11:26;2.90;;;1.57;;
13067;SDS011;6600;51.362;6.686;2023-08-08T11:13:51;2.17;;;1.40;;
13067;SDS011;6600;51.362;6.686;2023-08-08T11:16:17;2.17;;;1.10;;
13067;SDS011;6600;51.362;6.686;2023-08-08T11:18:42;2.93;;;1.30;;
13067;SDS011;6600;51.362;6.686;2023-08-08T11:21:11;1.43;;;1.07;;
13067;SDS011;6600;51.362;6.686;2023-08-08T11:23:37;1.30;;;1.20;;
13067;SDS011;6600;51.362;6.686;2023-08-08T11:26:03;1.80;;;1.33;;
13067;SDS011;6600;51.362;6.686;2023-08-08T11:28:29;2.43;;;1.30;;
13067;SDS011;6600;51.362;6.686;2023-08-08T11:30:55;1.40;;;1.27;;
13067;SDS011;6600;51.362;6.686;2023-08-08T11:33:20;1.50;;;1.27;;
13067;SDS011;6600;51.362;6.686;2023-08-08T11:35:46;1.20;;;1.00;;
13067;SDS011;6600;51.362;6.686;2023-08-08T11:38:13;2.63;;;0.90;;
13067;SDS011;6600;51.362;6.686;2023-08-08T11:40:39;1.17;;;1.13;;
13067;SDS011;6600;51.362;6.686;2023-08-08T11:43:05;1.03;;;1.03;;
13067;SDS011;6600;51.362;6.686;2023-08-08T11:45:31;0.73;;;0.73;;
13067;SDS011;6600;51.362;6.686;2023-08-08T11:47:57;1.27;;;1.17;;
13067;SDS011;6600;51.362;6.686;2023-08-08T11:50:23;1.90;;;1.07;;
13067;SDS011;6600;51.362;6.686;2023-08-08T11:52:51;2.10;;;1.20;;
13067;SDS011;6600;51.362;6.686;2023-08-08T11:55:20;1.90;;;0.80;;
13067;SDS011;6600;51.362;6.686;2023-08-08T11:57:53;3.13;;;1.20;;
13067;SDS011;6600;51.362;6.686;2023-08-08T12:00:21;4.43;;;1.07;;
13067;SDS011;6600;51.362;6.686;2023-08-08T12:02:52;1.20;;;1.10;;
13067;SDS011;6600;51.362;6.686;2023-08-08T12:05:20;1.43;;;0.90;;
13067;SDS011;6600;51.362;6.686;2023-08-08T12:07:47;2.73;;;1.30;;
13067;SDS011;6600;51.362;6.686;2023-08-08T12:10:14;1.00;;;1.00;;
13067;SDS011;6600;51.362;6.686;2023-08-08T12:12:42;1.47;;;1.10;;
13067;SDS011;6600;51.362;6.686;2023-08-08T12:15:08;3.07;;;1.03;;
13067;SDS011;6600;51.362;6.686;2023-08-08T12:17:35;1.43;;;0.93;;
13067;SDS011;6600;51.362;6.686;2023-08-08T12:20:04;0.80;;;0.80;;
13067;SDS011;6600;51.362;6.686;2023-08-08T12:22:31;4.27;;;1.20;;
13067;SDS011;6600;51.362;6.686;2023-08-08T12:24:57;0.80;;;0.80;;
13067;SDS011;6600;51.362;6.686;2023-08-08T12:27:23;0.90;;;0.83;;
13067;SDS011;6600;51.362;6.686;2023-08-08T12:29:48;1.87;;;0.90;;
13067;SDS011;6600;51.362;6.686;2023-08-08T12:32:14;0.87;;;0.83;;
13067;SDS011;6600;51.362;6.686;2023-08-08T12:34:39;1.60;;;1.10;;
13067;SDS011;6600;51.362;6.686;2023-08-08T12:37:04;1.30;;;1.03;;
13067;SDS011;6600;51.362;6.686;2023-08-08T12:39:30;1.00;;;1.00;;
13067;SDS011;6600;51.362;6.686;2023-08-08T12:41:55;1.73;;;0.90;;
13067;SDS011;6600;51.362;6.686;2023-08-08T12:44:21;1.20;;;0.97;;
13067;SDS011;6600;51.362;6.686;2023-08-08T12:46:46;1.23;;;1.00;;
13067;SDS011;6600;51.362;6.686;2023-08-08T12:49:11;1.50;;;0.90;;
13067;SDS011;6600;51.362;6.686;2023-08-08T12:51:37;1.13;;;1.03;;
13067;SDS011;6600;51.362;6.686;2023-08-08T12:54:02;2.17;;;1.13;;
13067;SDS011;6600;51.362;6.686;2023-08-08T12:56:28;1.93;;;1.10;;
13067;SDS011;6600;51.362;6.686;2023-08-08T12:58:53;0.90;;;0.90;;
13067;SDS011;6600;51.362;6.686;2023-08-08T13:01:18;1.10;;;1.00;;
13067;SDS011;6600;51.362;6.686;2023-08-08T13:03:44;2.90;;;1.00;;
13067;SDS011;6600;51.362;6.686;2023-08-08T13:06:09;1.00;;;1.00;;
13067;SDS011;6600;51.362;6.686;2023-08-08T13:08:36;3.20;;;1.17;;
13067;SDS011;6600;51.362;6.686;2023-08-08T13:11:02;0.97;;;0.97;;
13067;SDS011;6600;51.362;6.686;2023-08-08T13:13:28;2.00;;;1.20;;
13067;SDS011;6600;51.362;6.686;2023-08-08T13:15:53;1.20;;;1.00;;
13067;SDS011;6600;51.362;6.686;2023-08-08T13:18:18;0.97;;;0.93;;
13067;SDS011;6600;51.362;6.686;2023-08-08T13:20:44;1.43;;;0.90;;
13067;SDS011;6600;51.362;6.686;2023-08-08T13:23:09;0.93;;;0.90;;
13067;SDS011;6600;51.362;6.686;2023-08-08T13:25:34;1.07;;;0.90;;
13067;SDS011;6600;51.362;6.686;2023-08-08T13:28:00;1.23;;;0.90;;
13067;SDS011;6600;51.362;6.686;2023-08-08T13:30:28;2.63;;;1.00;;
13067;SDS011;6600;51.362;6.686;2023-08-08T13:32:53;2.40;;;0.93;;
13067;SDS011;6600;51.362;6.686;2023-08-08T13:35:19;0.90;;;0.90;;
13067;SDS011;6600;51.362;6.686;2023-08-08T13:37:45;1.50;;;1.00;;
13067;SDS011;6600;51.362;6.686;2023-08-08T13:40:14;1.47;;;1.20;;
13067;SDS011;6600;51.362;6.686;2023-08-08T13:42:40;1.23;;;0.90;;
13067;SDS011;6600;51.362;6.686;2023-08-08T13:45:05;1.37;;;1.27;;
13067;SDS011;6600;51.362;6.686;2023-08-08T13:47:31;3.93;;;1.13;;
13067;SDS011;6600;51.362;6.686;2023-08-08T13:49:57;0.87;;;0.87;;
13067;SDS011;6600;51.362;6.686;2023-08-08T13:52:22;1.47;;;0.80;;
13067;SDS011;6600;51.362;6.686;2023-08-08T13:54:47;1.50;;;0.80;;
13067;SDS011;6600;51.362;6.686;2023-08-08T13:57:13;0.90;;;0.90;;
13067;SDS011;6600;51.362;6.686;2023-08-08T13:59:38;1.93;;;0.90;;
13067;SDS011;6600;51.362;6.686;2023-08-08T14:02:03;1.40;;;0.70;;
13067;SDS011;6600;51.362;6.686;2023-08-08T14:04:29;0.80;;;0.80;;
13067;SDS011;6600;51.362;6.686;2023-08-08T14:06:54;2.20;;;0.60;;
13067;SDS011;6600;51.362;6.686;2023-08-08T14:09:19;1.63;;;1.07;;
13067;SDS011;6600;51.362;6.686;2023-08-08T14:11:45;0.97;;;0.80;;
13067;SDS011;6600;51.362;6.686;2023-08-08T14:14:10;1.87;;;0.80;;
13067;SDS011;6600;51.362;6.686;2023-08-08T14:16:36;0.70;;;0.70;;
13067;SDS011;6600;51.362;6.686;2023-08-08T14:19:01;0.97;;;0.90;;
13067;SDS011;6600;51.362;6.686;2023-08-08T14:21:26;0.97;;;0.97;;
13067;SDS011;6600;51.362;6.686;2023-08-08T14:23:52;0.83;;;0.83;;
13067;SDS011;6600;51.362;6.686;2023-08-08T14:26:18;0.70;;;0.63;;
13067;SDS011;6600;51.362;6.686;2023-08-08T14:28:43;2.17;;;1.17;;
13067;SDS011;6600;51.362;6.686;2023-08-08T14:31:09;0.70;;;0.70;;
13067;SDS011;6600;51.362;6.686;2023-08-08T14:33:34;0.50;;;0.50;;
13067;SDS011;6600;51.362;6.686;2023-08-08T14:36:00;0.53;;;0.47;;
13067;SDS011;6600;51.362;6.686;2023-08-08T14:38:25;0.70;;;0.70;;
13067;SDS011;6600;51.362;6.686;2023-08-08T14:40:51;2.10;;;0.77;;
13067;SDS011;6600;51.362;6.686;2023-08-08T14:43:18;0.60;;;0.60;;
13067;SDS011;6600;51.362;6.686;2023-08-08T14:45:43;0.97;;;0.67;;
13067;SDS011;6600;51.362;6.686;2023-08-08T14:48:08;0.53;;;0.50;;
13067;SDS011;6600;51.362;6.686;2023-08-08T14:50:34;0.40;;;0.40;;
13067;SDS011;6600;51.362;6.686;2023-08-08T14:52:59;0.63;;;0.30;;
13067;SDS011;6600;51.362;6.686;2023-08-08T14:55:24;1.33;;;0.40;;
13067;SDS011;6600;51.362;6.686;2023-08-08T14:57:50;1.43;;;0.50;;
13067;SDS011;6600;51.362;6.686;2023-08-08T15:00:16;0.90;;;0.37;;
13067;SDS011;6600;51.362;6.686;2023-08-08T15:02:42;0.87;;;0.70;;
13067;SDS011;6600;51.362;6.686;2023-08-08T15:05:07;0.30;;;0.30;;